sensor_id;sensor_type;location;lat;lon;timestamp;P1;durP1;ratioP1;P2;durP2;ratioP2
13897;SDS011;7019;50.766;4.474;2023-05-07T00:02:20;5.63;;;3.77;;
13897;SDS011;7019;50.766;4.474;2023-05-07T00:04:47;5.03;;;3.20;;
13897;SDS011;7019;50.766;4.474;2023-05-07T00:07:15;6.23;;;4.00;;
13897;SDS011;7019;50.766;4.474;2023-05-07T00:09:42;9.27;;;4.00;;
13897;SDS011;7019;50.766;4.474;2023-05-07T00:12:09;6.30;;;4.23;;
13897;SDS011;7019;50.766;4.474;2023-05-07T00:14:36;7.60;;;3.27;;
13897;SDS011;7019;50.766;4.474;2023-05-07T00:17:03;6.13;;;3.73;;
13897;SDS011;7019;50.766;4.474;2023-05-07T00:19:32;7.73;;;3.83;;
13897;SDS011;7019;50.766;4.474;2023-05-07T00:21:59;7.97;;;3.73;;
13897;SDS011;7019;50.766;4.474;2023-05-07T00:24:26;5.17;;;3.60;;
13897;SDS011;7019;50.766;4.474;2023-05-07T00:26:53;7.63;;;3.80;;
13897;SDS011;7019;50.766;4.474;2023-05-07T00:29:20;4.80;;;3.97;;
13897;SDS011;7019;50.766;4.474;2023-05-07T00:31:48;5.67;;;3.83;;
13897;SDS011;7019;50.766;4.474;2023-05-07T00:34:16;4.97;;;3.23;;
13897;SDS011;7019;50.766;4.474;2023-05-07T00:36:44;7.57;;;3.63;;
13897;SDS011;7019;50.766;4.474;2023-05-07T00:39:11;7.57;;;3.60;;
13897;SDS011;7019;50.766;4.474;2023-05-07T00:41:39;5.23;;;3.50;;
13897;SDS011;7019;50.766;4.474;2023-05-07T00:44:06;3.90;;;3.47;;
13897;SDS011;7019;50.766;4.474;2023-05-07T00:46:33;5.67;;;3.63;;
13897;SDS011;7019;50.766;4.474;2023-05-07T00:49:00;4.57;;;3.73;;
13897;SDS011;7019;50.766;4.474;2023-05-07T00:51:28;6.07;;;3.53;;
13897;SDS011;7019;50.766;4.474;2023-05-07T00:53:57;4.07;;;3.37;;
13897;SDS011;7019;50.766;4.474;2023-05-07T00:56:24;6.30;;;3.50;;
13897;SDS011;7019;50.766;4.474;2023-05-07T00:58:52;6.13;;;3.73;;
13897;SDS011;7019;50.766;4.474;2023-05-07T01:01:19;5.50;;;3.47;;
13897;SDS011;7019;50.766;4.474;2023-05-07T01:03:47;6.57;;;3.93;;
13897;SDS011;7019;50.766;4.474;2023-05-07T01:06:14;6.23;;;3.60;;
13897;SDS011;7019;50.766;4.474;2023-05-07T01:08:42;7.67;;;4.30;;
13897;SDS011;7019;50.766;4.474;2023-05-07T01:11:11;6.53;;;3.80;;
13897;SDS011;7019;50.766;4.474;2023-05-07T01:13:39;6.13;;;3.87;;
13897;SDS011;7019;50.766;4.474;2023-05-07T01:16:08;7.03;;;3.97;;
13897;SDS011;7019;50.766;4.474;2023-05-07T01:18:35;9.50;;;4.13;;
13897;SDS011;7019;50.766;4.474;2023-05-07T01:21:04;7.97;;;4.10;;
13897;SDS011;7019;50.766;4.474;2023-05-07T01:23:32;4.97;;;3.43;;
13897;SDS011;7019;50.766;4.474;2023-05-07T01:26:01;6.87;;;4.00;;
13897;SDS011;7019;50.766;4.474;2023-05-07T01:28:28;4.03;;;3.63;;
13897;SDS011;7019;50.766;4.474;2023-05-07T01:30:56;5.53;;;3.50;;
13897;SDS011;7019;50.766;4.474;2023-05-07T01:33:28;5.10;;;3.37;;
13897;SDS011;7019;50.766;4.474;2023-05-07T01:35:57;8.83;;;3.57;;
13897;SDS011;7019;50.766;4.474;2023-05-07T01:38:27;6.30;;;3.47;;
13897;SDS011;7019;50.766;4.474;2023-05-07T01:40:56;5.53;;;4.23;;
13897;SDS011;7019;50.766;4.474;2023-05-07T01:43:24;6.70;;;3.50;;
13897;SDS011;7019;50.766;4.474;2023-05-07T01:45:52;4.93;;;3.80;;
13897;SDS011;7019;50.766;4.474;2023-05-07T01:48:20;8.07;;;4.03;;
13897;SDS011;7019;50.766;4.474;2023-05-07T01:50:47;5.13;;;3.57;;
13897;SDS011;7019;50.766;4.474;2023-05-07T01:53:14;8.23;;;4.77;;
13897;SDS011;7019;50.766;4.474;2023-05-07T01:55:42;8.80;;;3.80;;
13897;SDS011;7019;50.766;4.474;2023-05-07T01:58:10;6.57;;;4.10;;
13897;SDS011;7019;50.766;4.474;2023-05-07T02:00:37;7.77;;;4.10;;
13897;SDS011;7019;50.766;4.474;2023-05-07T02:03:05;6.77;;;4.00;;
13897;SDS011;7019;50.766;4.474;2023-05-07T02:05:33;7.10;;;4.03;;
13897;SDS011;7019;50.766;4.474;2023-05-07T02:08:00;6.07;;;3.73;;
13897;SDS011;7019;50.766;4.474;2023-05-07T02:10:27;4.80;;;4.03;;
13897;SDS011;7019;50.766;4.474;2023-05-07T02:12:54;6.67;;;3.90;;
13897;SDS011;7019;50.766;4.474;2023-05-07T02:15:23;4.33;;;3.50;;
13897;SDS011;7019;50.766;4.474;2023-05-07T02:17:59;9.13;;;3.37;;
13897;SDS011;7019;50.766;4.474;2023-05-07T02:20:27;5.10;;;3.40;;
13897;SDS011;7019;50.766;4.474;2023-05-07T02:22:54;6.33;;;4.23;;
13897;SDS011;7019;50.766;4.474;2023-05-07T02:25:21;5.77;;;3.90;;
13897;SDS011;7019;50.766;4.474;2023-05-07T02:27:48;5.30;;;4.27;;
13897;SDS011;7019;50.766;4.474;2023-05-07T02:30:16;6.47;;;4.03;;
13897;SDS011;7019;50.766;4.474;2023-05-07T02:32:44;6.83;;;3.80;;
13897;SDS011;7019;50.766;4.474;2023-05-07T02:35:11;5.27;;;3.77;;
13897;SDS011;7019;50.766;4.474;2023-05-07T02:37:38;6.20;;;3.70;;
13897;SDS011;7019;50.766;4.474;2023-05-07T02:40:06;5.40;;;3.90;;
13897;SDS011;7019;50.766;4.474;2023-05-07T02:42:34;4.83;;;3.83;;
13897;SDS011;7019;50.766;4.474;2023-05-07T02:45:01;6.43;;;4.03;;
13897;SDS011;7019;50.766;4.474;2023-05-07T02:47:28;7.37;;;4.10;;
13897;SDS011;7019;50.766;4.474;2023-05-07T02:49:56;5.23;;;4.20;;
13897;SDS011;7019;50.766;4.474;2023-05-07T02:52:23;9.03;;;4.80;;
13897;SDS011;7019;50.766;4.474;2023-05-07T02:54:50;6.63;;;4.40;;
13897;SDS011;7019;50.766;4.474;2023-05-07T02:57:18;4.83;;;3.93;;
13897;SDS011;7019;50.766;4.474;2023-05-07T02:59:45;7.87;;;3.53;;
13897;SDS011;7019;50.766;4.474;2023-05-07T03:02:12;6.30;;;4.20;;
13897;SDS011;7019;50.766;4.474;2023-05-07T03:04:39;5.17;;;4.40;;
13897;SDS011;7019;50.766;4.474;2023-05-07T03:07:07;4.93;;;4.43;;
13897;SDS011;7019;50.766;4.474;2023-05-07T03:09:34;5.73;;;4.37;;
13897;SDS011;7019;50.766;4.474;2023-05-07T03:12:02;6.10;;;4.70;;
13897;SDS011;7019;50.766;4.474;2023-05-07T03:14:29;4.90;;;3.97;;
13897;SDS011;7019;50.766;4.474;2023-05-07T03:16:56;4.63;;;3.87;;
13897;SDS011;7019;50.766;4.474;2023-05-07T03:19:23;7.90;;;4.53;;
13897;SDS011;7019;50.766;4.474;2023-05-07T03:21:50;5.57;;;3.93;;
13897;SDS011;7019;50.766;4.474;2023-05-07T03:24:18;5.70;;;3.97;;
13897;SDS011;7019;50.766;4.474;2023-05-07T03:26:45;5.80;;;4.20;;
13897;SDS011;7019;50.766;4.474;2023-05-07T03:29:12;5.73;;;3.73;;
13897;SDS011;7019;50.766;4.474;2023-05-07T03:31:39;5.73;;;3.80;;
13897;SDS011;7019;50.766;4.474;2023-05-07T03:34:06;5.37;;;4.13;;
13897;SDS011;7019;50.766;4.474;2023-05-07T03:36:33;6.87;;;4.00;;
13897;SDS011;7019;50.766;4.474;2023-05-07T03:39:00;6.37;;;3.73;;
13897;SDS011;7019;50.766;4.474;2023-05-07T03:41:29;4.93;;;3.93;;
13897;SDS011;7019;50.766;4.474;2023-05-07T03:43:56;5.07;;;3.90;;
13897;SDS011;7019;50.766;4.474;2023-05-07T03:46:23;5.90;;;4.27;;
13897;SDS011;7019;50.766;4.474;2023-05-07T03:48:51;5.93;;;4.27;;
13897;SDS011;7019;50.766;4.474;2023-05-07T03:51:18;5.80;;;4.00;;
13897;SDS011;7019;50.766;4.474;2023-05-07T03:53:45;7.37;;;3.43;;
13897;SDS011;7019;50.766;4.474;2023-05-07T03:56:12;4.87;;;3.97;;
13897;SDS011;7019;50.766;4.474;2023-05-07T03:58:41;6.53;;;4.17;;
13897;SDS011;7019;50.766;4.474;2023-05-07T04:01:08;6.83;;;3.67;;
13897;SDS011;7019;50.766;4.474;2023-05-07T04:03:35;8.00;;;3.70;;
13897;SDS011;7019;50.766;4.474;2023-05-07T04:06:02;6.00;;;3.90;;
13897;SDS011;7019;50.766;4.474;2023-05-07T04:08:29;6.33;;;4.10;;
13897;SDS011;7019;50.766;4.474;2023-05-07T04:10:56;5.20;;;3.73;;
13897;SDS011;7019;50.766;4.474;2023-05-07T04:13:24;5.43;;;3.67;;
13897;SDS011;7019;50.766;4.474;2023-05-07T04:15:54;5.97;;;3.67;;
13897;SDS011;7019;50.766;4.474;2023-05-07T04:18:21;5.93;;;3.43;;
13897;SDS011;7019;50.766;4.474;2023-05-07T04:20:48;4.70;;;3.80;;
13897;SDS011;7019;50.766;4.474;2023-05-07T04:23:16;6.53;;;3.50;;
13897;SDS011;7019;50.766;4.474;2023-05-07T04:25:43;5.87;;;4.20;;
13897;SDS011;7019;50.766;4.474;2023-05-07T04:28:10;8.57;;;4.77;;
13897;SDS011;7019;50.766;4.474;2023-05-07T04:30:37;5.40;;;3.97;;
13897;SDS011;7019;50.766;4.474;2023-05-07T04:33:06;4.80;;;4.00;;
13897;SDS011;7019;50.766;4.474;2023-05-07T04:35:33;8.30;;;4.43;;
13897;SDS011;7019;50.766;4.474;2023-05-07T04:38:01;6.07;;;3.60;;
13897;SDS011;7019;50.766;4.474;2023-05-07T04:40:28;5.67;;;3.60;;
13897;SDS011;7019;50.766;4.474;2023-05-07T04:42:56;4.93;;;3.67;;
13897;SDS011;7019;50.766;4.474;2023-05-07T04:45:23;4.03;;;3.60;;
13897;SDS011;7019;50.766;4.474;2023-05-07T04:47:50;6.57;;;3.73;;
13897;SDS011;7019;50.766;4.474;2023-05-07T04:50:18;6.23;;;4.07;;
13897;SDS011;7019;50.766;4.474;2023-05-07T04:52:48;5.10;;;3.27;;
13897;SDS011;7019;50.766;4.474;2023-05-07T04:55:15;4.73;;;3.00;;
13897;SDS011;7019;50.766;4.474;2023-05-07T04:57:43;7.47;;;3.83;;
13897;SDS011;7019;50.766;4.474;2023-05-07T05:00:10;5.00;;;3.50;;
13897;SDS011;7019;50.766;4.474;2023-05-07T05:02:39;5.60;;;3.43;;
13897;SDS011;7019;50.766;4.474;2023-05-07T05:05:07;5.90;;;3.37;;
13897;SDS011;7019;50.766;4.474;2023-05-07T05:07:35;6.17;;;3.27;;
13897;SDS011;7019;50.766;4.474;2023-05-07T05:10:04;6.60;;;3.27;;
13897;SDS011;7019;50.766;4.474;2023-05-07T05:12:32;3.57;;;3.20;;
13897;SDS011;7019;50.766;4.474;2023-05-07T05:14:59;3.67;;;3.27;;
13897;SDS011;7019;50.766;4.474;2023-05-07T05:17:26;5.70;;;3.70;;
13897;SDS011;7019;50.766;4.474;2023-05-07T05:19:53;7.10;;;3.50;;
13897;SDS011;7019;50.766;4.474;2023-05-07T05:22:20;6.67;;;3.90;;
13897;SDS011;7019;50.766;4.474;2023-05-07T05:24:49;8.10;;;3.73;;
13897;SDS011;7019;50.766;4.474;2023-05-07T05:27:16;5.90;;;3.67;;
13897;SDS011;7019;50.766;4.474;2023-05-07T05:29:43;5.10;;;3.27;;
13897;SDS011;7019;50.766;4.474;2023-05-07T05:32:10;4.83;;;3.00;;
13897;SDS011;7019;50.766;4.474;2023-05-07T05:34:37;6.47;;;3.67;;
13897;SDS011;7019;50.766;4.474;2023-05-07T05:37:04;4.97;;;4.47;;
13897;SDS011;7019;50.766;4.474;2023-05-07T05:39:31;5.17;;;3.37;;
13897;SDS011;7019;50.766;4.474;2023-05-07T05:41:59;6.40;;;3.67;;
13897;SDS011;7019;50.766;4.474;2023-05-07T05:44:26;6.97;;;3.50;;
13897;SDS011;7019;50.766;4.474;2023-05-07T05:46:53;5.77;;;3.90;;
13897;SDS011;7019;50.766;4.474;2023-05-07T05:49:22;8.20;;;4.00;;
13897;SDS011;7019;50.766;4.474;2023-05-07T05:51:49;7.53;;;3.80;;
13897;SDS011;7019;50.766;4.474;2023-05-07T05:54:16;8.63;;;4.40;;
13897;SDS011;7019;50.766;4.474;2023-05-07T05:56:43;4.93;;;4.17;;
13897;SDS011;7019;50.766;4.474;2023-05-07T05:59:12;4.67;;;4.00;;
13897;SDS011;7019;50.766;4.474;2023-05-07T06:01:39;8.33;;;3.30;;
13897;SDS011;7019;50.766;4.474;2023-05-07T06:04:06;4.57;;;3.30;;
13897;SDS011;7019;50.766;4.474;2023-05-07T06:06:33;7.07;;;4.20;;
13897;SDS011;7019;50.766;4.474;2023-05-07T06:09:00;6.30;;;4.17;;
13897;SDS011;7019;50.766;4.474;2023-05-07T06:11:28;9.50;;;4.23;;
13897;SDS011;7019;50.766;4.474;2023-05-07T06:13:55;6.63;;;3.80;;
13897;SDS011;7019;50.766;4.474;2023-05-07T06:16:24;7.83;;;4.83;;
13897;SDS011;7019;50.766;4.474;2023-05-07T06:18:51;5.57;;;4.00;;
13897;SDS011;7019;50.766;4.474;2023-05-07T06:21:18;5.17;;;3.80;;
13897;SDS011;7019;50.766;4.474;2023-05-07T06:23:45;5.67;;;3.73;;
13897;SDS011;7019;50.766;4.474;2023-05-07T06:26:12;4.10;;;2.63;;
13897;SDS011;7019;50.766;4.474;2023-05-07T06:28:39;7.13;;;3.00;;
13897;SDS011;7019;50.766;4.474;2023-05-07T06:31:13;8.27;;;3.47;;
13897;SDS011;7019;50.766;4.474;2023-05-07T06:33:42;4.03;;;2.50;;
13897;SDS011;7019;50.766;4.474;2023-05-07T06:36:10;4.87;;;2.57;;
13897;SDS011;7019;50.766;4.474;2023-05-07T06:38:37;4.23;;;2.30;;
13897;SDS011;7019;50.766;4.474;2023-05-07T06:41:05;6.00;;;2.43;;
13897;SDS011;7019;50.766;4.474;2023-05-07T06:43:32;3.80;;;2.33;;
13897;SDS011;7019;50.766;4.474;2023-05-07T06:45:59;5.87;;;2.43;;
13897;SDS011;7019;50.766;4.474;2023-05-07T06:48:26;4.67;;;2.47;;
13897;SDS011;7019;50.766;4.474;2023-05-07T06:50:55;3.57;;;2.00;;
13897;SDS011;7019;50.766;4.474;2023-05-07T06:53:22;4.47;;;2.20;;
13897;SDS011;7019;50.766;4.474;2023-05-07T06:55:50;4.63;;;2.03;;
13897;SDS011;7019;50.766;4.474;2023-05-07T06:58:18;5.07;;;2.63;;
13897;SDS011;7019;50.766;4.474;2023-05-07T07:00:45;4.73;;;2.40;;
13897;SDS011;7019;50.766;4.474;2023-05-07T07:03:12;4.43;;;2.30;;
13897;SDS011;7019;50.766;4.474;2023-05-07T07:05:40;4.63;;;2.60;;
13897;SDS011;7019;50.766;4.474;2023-05-07T07:08:09;5.10;;;2.33;;
13897;SDS011;7019;50.766;4.474;2023-05-07T07:10:36;4.77;;;2.57;;
13897;SDS011;7019;50.766;4.474;2023-05-07T07:13:03;4.87;;;2.40;;
13897;SDS011;7019;50.766;4.474;2023-05-07T07:15:30;5.60;;;2.70;;
13897;SDS011;7019;50.766;4.474;2023-05-07T07:17:57;4.60;;;2.53;;
13897;SDS011;7019;50.766;4.474;2023-05-07T07:20:24;4.40;;;2.60;;
13897;SDS011;7019;50.766;4.474;2023-05-07T07:22:51;6.00;;;2.90;;
13897;SDS011;7019;50.766;4.474;2023-05-07T07:25:20;4.20;;;2.87;;
13897;SDS011;7019;50.766;4.474;2023-05-07T07:27:47;7.67;;;3.20;;
13897;SDS011;7019;50.766;4.474;2023-05-07T07:30:15;6.77;;;2.70;;
13897;SDS011;7019;50.766;4.474;2023-05-07T07:32:42;4.67;;;2.70;;
13897;SDS011;7019;50.766;4.474;2023-05-07T07:35:09;7.53;;;3.27;;
13897;SDS011;7019;50.766;4.474;2023-05-07T07:37:36;5.60;;;2.93;;
13897;SDS011;7019;50.766;4.474;2023-05-07T07:40:03;5.20;;;3.10;;
13897;SDS011;7019;50.766;4.474;2023-05-07T07:42:32;5.23;;;3.57;;
13897;SDS011;7019;50.766;4.474;2023-05-07T07:44:59;5.47;;;2.90;;
13897;SDS011;7019;50.766;4.474;2023-05-07T07:47:26;4.80;;;3.10;;
13897;SDS011;7019;50.766;4.474;2023-05-07T07:49:53;5.20;;;2.80;;
13897;SDS011;7019;50.766;4.474;2023-05-07T07:52:20;6.13;;;3.13;;
13897;SDS011;7019;50.766;4.474;2023-05-07T07:54:47;8.97;;;3.40;;
13897;SDS011;7019;50.766;4.474;2023-05-07T07:57:14;4.60;;;3.13;;
13897;SDS011;7019;50.766;4.474;2023-05-07T07:59:43;5.60;;;3.73;;
13897;SDS011;7019;50.766;4.474;2023-05-07T08:02:10;4.67;;;3.30;;
13897;SDS011;7019;50.766;4.474;2023-05-07T08:04:37;4.53;;;3.30;;
13897;SDS011;7019;50.766;4.474;2023-05-07T08:07:04;6.60;;;2.80;;
13897;SDS011;7019;50.766;4.474;2023-05-07T08:09:32;3.97;;;3.03;;
13897;SDS011;7019;50.766;4.474;2023-05-07T08:11:59;4.50;;;2.87;;
13897;SDS011;7019;50.766;4.474;2023-05-07T08:14:26;5.63;;;2.70;;
13897;SDS011;7019;50.766;4.474;2023-05-07T08:16:55;3.47;;;2.80;;
13897;SDS011;7019;50.766;4.474;2023-05-07T08:19:22;4.77;;;2.93;;
13897;SDS011;7019;50.766;4.474;2023-05-07T08:21:49;3.33;;;2.73;;
13897;SDS011;7019;50.766;4.474;2023-05-07T08:24:16;4.17;;;3.07;;
13897;SDS011;7019;50.766;4.474;2023-05-07T08:26:44;4.93;;;2.93;;
13897;SDS011;7019;50.766;4.474;2023-05-07T08:29:11;4.00;;;2.70;;
13897;SDS011;7019;50.766;4.474;2023-05-07T08:31:38;6.20;;;3.00;;
13897;SDS011;7019;50.766;4.474;2023-05-07T08:34:07;5.33;;;3.27;;
13897;SDS011;7019;50.766;4.474;2023-05-07T08:36:34;6.33;;;2.97;;
13897;SDS011;7019;50.766;4.474;2023-05-07T08:39:01;5.00;;;2.70;;
13897;SDS011;7019;50.766;4.474;2023-05-07T08:41:28;6.00;;;2.87;;
13897;SDS011;7019;50.766;4.474;2023-05-07T08:43:57;4.90;;;2.83;;
13897;SDS011;7019;50.766;4.474;2023-05-07T08:46:25;4.07;;;2.77;;
13897;SDS011;7019;50.766;4.474;2023-05-07T08:48:57;3.77;;;3.07;;
13897;SDS011;7019;50.766;4.474;2023-05-07T08:51:26;3.87;;;2.77;;
13897;SDS011;7019;50.766;4.474;2023-05-07T08:53:53;4.13;;;2.17;;
13897;SDS011;7019;50.766;4.474;2023-05-07T08:56:20;4.33;;;2.60;;
13897;SDS011;7019;50.766;4.474;2023-05-07T08:58:47;5.30;;;2.33;;
13897;SDS011;7019;50.766;4.474;2023-05-07T09:01:15;4.93;;;2.40;;
13897;SDS011;7019;50.766;4.474;2023-05-07T09:03:43;2.87;;;2.17;;
13897;SDS011;7019;50.766;4.474;2023-05-07T09:06:11;4.53;;;2.37;;
13897;SDS011;7019;50.766;4.474;2023-05-07T09:08:40;4.03;;;2.23;;
13897;SDS011;7019;50.766;4.474;2023-05-07T09:11:10;4.10;;;2.50;;
13897;SDS011;7019;50.766;4.474;2023-05-07T09:13:38;3.73;;;1.80;;
13897;SDS011;7019;50.766;4.474;2023-05-07T09:16:12;4.50;;;1.80;;
13897;SDS011;7019;50.766;4.474;2023-05-07T09:18:40;4.07;;;1.90;;
13897;SDS011;7019;50.766;4.474;2023-05-07T09:21:09;4.33;;;2.13;;
13897;SDS011;7019;50.766;4.474;2023-05-07T09:23:37;3.40;;;1.80;;
13897;SDS011;7019;50.766;4.474;2023-05-07T09:26:06;2.63;;;2.10;;
13897;SDS011;7019;50.766;4.474;2023-05-07T09:28:38;2.50;;;2.30;;
13897;SDS011;7019;50.766;4.474;2023-05-07T09:31:06;2.47;;;2.23;;
13897;SDS011;7019;50.766;4.474;2023-05-07T09:33:34;4.77;;;2.63;;
13897;SDS011;7019;50.766;4.474;2023-05-07T09:36:04;5.03;;;2.07;;
13897;SDS011;7019;50.766;4.474;2023-05-07T09:38:32;3.93;;;2.70;;
13897;SDS011;7019;50.766;4.474;2023-05-07T09:41:03;5.47;;;2.80;;
13897;SDS011;7019;50.766;4.474;2023-05-07T09:43:33;4.00;;;2.70;;
13897;SDS011;7019;50.766;4.474;2023-05-07T09:46:02;5.13;;;2.20;;
13897;SDS011;7019;50.766;4.474;2023-05-07T09:48:32;2.93;;;1.87;;
13897;SDS011;7019;50.766;4.474;2023-05-07T09:51:06;5.17;;;2.07;;
13897;SDS011;7019;50.766;4.474;2023-05-07T09:53:47;4.37;;;2.20;;
13897;SDS011;7019;50.766;4.474;2023-05-07T09:56:18;3.17;;;2.03;;
13897;SDS011;7019;50.766;4.474;2023-05-07T09:58:46;4.33;;;1.80;;
13897;SDS011;7019;50.766;4.474;2023-05-07T10:01:14;2.47;;;1.83;;
13897;SDS011;7019;50.766;4.474;2023-05-07T10:03:44;3.60;;;2.43;;
13897;SDS011;7019;50.766;4.474;2023-05-07T10:06:13;4.00;;;2.73;;
13897;SDS011;7019;50.766;4.474;2023-05-07T10:08:40;4.73;;;2.67;;
13897;SDS011;7019;50.766;4.474;2023-05-07T10:11:10;3.97;;;2.23;;
13897;SDS011;7019;50.766;4.474;2023-05-07T10:13:39;3.17;;;2.37;;
13897;SDS011;7019;50.766;4.474;2023-05-07T10:16:07;2.40;;;1.87;;
13897;SDS011;7019;50.766;4.474;2023-05-07T10:18:34;2.50;;;1.80;;
13897;SDS011;7019;50.766;4.474;2023-05-07T10:21:04;3.00;;;1.80;;
13897;SDS011;7019;50.766;4.474;2023-05-07T10:23:34;2.23;;;1.57;;
13897;SDS011;7019;50.766;4.474;2023-05-07T10:26:02;3.87;;;2.10;;
13897;SDS011;7019;50.766;4.474;2023-05-07T10:28:32;3.47;;;2.00;;
13897;SDS011;7019;50.766;4.474;2023-05-07T10:31:07;3.73;;;2.17;;
13897;SDS011;7019;50.766;4.474;2023-05-07T10:33:45;2.47;;;2.10;;
13897;SDS011;7019;50.766;4.474;2023-05-07T10:36:16;3.93;;;2.07;;
13897;SDS011;7019;50.766;4.474;2023-05-07T10:38:44;2.67;;;1.70;;
13897;SDS011;7019;50.766;4.474;2023-05-07T10:41:12;2.50;;;1.70;;
13897;SDS011;7019;50.766;4.474;2023-05-07T10:43:41;3.00;;;1.73;;
13897;SDS011;7019;50.766;4.474;2023-05-07T10:46:13;4.87;;;1.93;;
13897;SDS011;7019;50.766;4.474;2023-05-07T10:51:41;2.90;;;2.13;;
13897;SDS011;7019;50.766;4.474;2023-05-07T10:56:52;2.10;;;1.80;;
13897;SDS011;7019;50.766;4.474;2023-05-07T10:59:29;4.60;;;1.77;;
13897;SDS011;7019;50.766;4.474;2023-05-07T11:02:00;2.93;;;1.60;;
13897;SDS011;7019;50.766;4.474;2023-05-07T11:04:29;2.23;;;1.73;;
13897;SDS011;7019;50.766;4.474;2023-05-07T11:09:59;3.57;;;1.70;;
13897;SDS011;7019;50.766;4.474;2023-05-07T11:12:52;1.67;;;1.40;;
13897;SDS011;7019;50.766;4.474;2023-05-07T11:18:16;1.60;;;1.13;;
13897;SDS011;7019;50.766;4.474;2023-05-07T11:20:54;2.33;;;1.50;;
13897;SDS011;7019;50.766;4.474;2023-05-07T11:26:24;3.80;;;1.40;;
13897;SDS011;7019;50.766;4.474;2023-05-07T11:28:53;2.10;;;1.50;;
13897;SDS011;7019;50.766;4.474;2023-05-07T11:31:22;1.80;;;1.40;;
13897;SDS011;7019;50.766;4.474;2023-05-07T11:33:54;2.07;;;1.53;;
13897;SDS011;7019;50.766;4.474;2023-05-07T11:36:22;1.80;;;1.10;;
13897;SDS011;7019;50.766;4.474;2023-05-07T11:38:50;3.00;;;1.50;;
13897;SDS011;7019;50.766;4.474;2023-05-07T11:41:17;3.10;;;1.57;;
13897;SDS011;7019;50.766;4.474;2023-05-07T11:43:56;1.93;;;1.57;;
13897;SDS011;7019;50.766;4.474;2023-05-07T11:46:24;2.97;;;1.20;;
13897;SDS011;7019;50.766;4.474;2023-05-07T11:48:54;1.37;;;0.97;;
13897;SDS011;7019;50.766;4.474;2023-05-07T11:51:22;1.83;;;1.40;;
13897;SDS011;7019;50.766;4.474;2023-05-07T11:53:51;3.73;;;1.13;;
13897;SDS011;7019;50.766;4.474;2023-05-07T11:56:19;3.67;;;1.60;;
13897;SDS011;7019;50.766;4.474;2023-05-07T11:58:46;2.27;;;1.63;;
13897;SDS011;7019;50.766;4.474;2023-05-07T12:01:14;1.37;;;1.23;;
13897;SDS011;7019;50.766;4.474;2023-05-07T12:03:44;3.13;;;1.63;;
13897;SDS011;7019;50.766;4.474;2023-05-07T12:06:14;2.13;;;1.53;;
13897;SDS011;7019;50.766;4.474;2023-05-07T12:08:42;2.07;;;1.40;;
13897;SDS011;7019;50.766;4.474;2023-05-07T12:11:13;2.23;;;1.40;;
13897;SDS011;7019;50.766;4.474;2023-05-07T12:13:43;2.40;;;1.57;;
13897;SDS011;7019;50.766;4.474;2023-05-07T12:16:10;1.70;;;1.30;;
13897;SDS011;7019;50.766;4.474;2023-05-07T12:18:38;3.27;;;1.30;;
13897;SDS011;7019;50.766;4.474;2023-05-07T12:21:06;2.27;;;1.60;;
13897;SDS011;7019;50.766;4.474;2023-05-07T12:23:35;3.30;;;1.80;;
13897;SDS011;7019;50.766;4.474;2023-05-07T12:26:03;2.03;;;1.50;;
13897;SDS011;7019;50.766;4.474;2023-05-07T12:28:31;2.63;;;1.90;;
13897;SDS011;7019;50.766;4.474;2023-05-07T12:31:03;2.87;;;2.40;;
13897;SDS011;7019;50.766;4.474;2023-05-07T12:33:30;2.10;;;1.40;;
13897;SDS011;7019;50.766;4.474;2023-05-07T12:35:58;2.47;;;1.70;;
13897;SDS011;7019;50.766;4.474;2023-05-07T12:38:33;3.13;;;1.80;;
13897;SDS011;7019;50.766;4.474;2023-05-07T12:41:03;2.80;;;1.73;;
13897;SDS011;7019;50.766;4.474;2023-05-07T12:43:33;2.37;;;1.87;;
13897;SDS011;7019;50.766;4.474;2023-05-07T12:46:01;2.73;;;2.00;;
13897;SDS011;7019;50.766;4.474;2023-05-07T12:48:29;2.90;;;2.30;;
13897;SDS011;7019;50.766;4.474;2023-05-07T12:50:58;2.60;;;1.90;;
13897;SDS011;7019;50.766;4.474;2023-05-07T12:53:26;3.27;;;2.07;;
13897;SDS011;7019;50.766;4.474;2023-05-07T12:55:56;2.70;;;2.00;;
13897;SDS011;7019;50.766;4.474;2023-05-07T12:58:25;3.70;;;2.30;;
13897;SDS011;7019;50.766;4.474;2023-05-07T13:00:53;3.03;;;2.53;;
13897;SDS011;7019;50.766;4.474;2023-05-07T13:03:25;2.80;;;2.50;;
13897;SDS011;7019;50.766;4.474;2023-05-07T13:05:54;2.67;;;2.20;;
13897;SDS011;7019;50.766;4.474;2023-05-07T13:08:25;2.60;;;2.33;;
13897;SDS011;7019;50.766;4.474;2023-05-07T13:10:53;3.30;;;2.70;;
13897;SDS011;7019;50.766;4.474;2023-05-07T13:13:21;4.53;;;2.97;;
13897;SDS011;7019;50.766;4.474;2023-05-07T13:15:49;4.73;;;3.50;;
13897;SDS011;7019;50.766;4.474;2023-05-07T13:18:16;4.73;;;3.30;;
13897;SDS011;7019;50.766;4.474;2023-05-07T13:20:43;3.60;;;3.20;;
13897;SDS011;7019;50.766;4.474;2023-05-07T13:23:10;3.67;;;3.33;;
13897;SDS011;7019;50.766;4.474;2023-05-07T13:25:37;3.80;;;3.40;;
13897;SDS011;7019;50.766;4.474;2023-05-07T13:28:04;4.87;;;3.43;;
13897;SDS011;7019;50.766;4.474;2023-05-07T13:30:33;4.03;;;3.63;;
13897;SDS011;7019;50.766;4.474;2023-05-07T13:33:00;4.00;;;3.30;;
13897;SDS011;7019;50.766;4.474;2023-05-07T13:35:27;3.60;;;3.30;;
13897;SDS011;7019;50.766;4.474;2023-05-07T13:37:54;4.07;;;3.67;;
13897;SDS011;7019;50.766;4.474;2023-05-07T13:40:22;3.63;;;3.33;;
13897;SDS011;7019;50.766;4.474;2023-05-07T13:42:49;5.47;;;4.10;;
13897;SDS011;7019;50.766;4.474;2023-05-07T13:45:16;4.23;;;3.83;;
13897;SDS011;7019;50.766;4.474;2023-05-07T13:47:45;4.13;;;3.73;;
13897;SDS011;7019;50.766;4.474;2023-05-07T13:50:14;4.73;;;4.20;;
13897;SDS011;7019;50.766;4.474;2023-05-07T13:52:42;4.43;;;3.73;;
13897;SDS011;7019;50.766;4.474;2023-05-07T13:55:15;3.77;;;3.37;;
13897;SDS011;7019;50.766;4.474;2023-05-07T13:57:42;4.37;;;3.97;;
13897;SDS011;7019;50.766;4.474;2023-05-07T14:00:10;5.47;;;3.90;;
13897;SDS011;7019;50.766;4.474;2023-05-07T14:02:38;5.07;;;4.40;;
13897;SDS011;7019;50.766;4.474;2023-05-07T14:05:07;4.40;;;4.00;;
13897;SDS011;7019;50.766;4.474;2023-05-07T14:07:35;4.57;;;4.03;;
13897;SDS011;7019;50.766;4.474;2023-05-07T14:10:02;4.57;;;4.17;;
13897;SDS011;7019;50.766;4.474;2023-05-07T14:12:31;4.57;;;4.13;;
13897;SDS011;7019;50.766;4.474;2023-05-07T14:14:58;4.60;;;4.20;;
13897;SDS011;7019;50.766;4.474;2023-05-07T14:17:25;4.87;;;4.20;;
13897;SDS011;7019;50.766;4.474;2023-05-07T14:19:53;4.70;;;4.20;;
13897;SDS011;7019;50.766;4.474;2023-05-07T14:22:22;4.57;;;3.93;;
13897;SDS011;7019;50.766;4.474;2023-05-07T14:24:49;4.57;;;4.17;;
13897;SDS011;7019;50.766;4.474;2023-05-07T14:27:16;5.40;;;4.30;;
13897;SDS011;7019;50.766;4.474;2023-05-07T14:29:43;5.30;;;4.80;;
13897;SDS011;7019;50.766;4.474;2023-05-07T14:32:15;6.50;;;4.87;;
13897;SDS011;7019;50.766;4.474;2023-05-07T14:34:43;4.67;;;4.27;;
13897;SDS011;7019;50.766;4.474;2023-05-07T14:37:10;4.87;;;4.37;;
13897;SDS011;7019;50.766;4.474;2023-05-07T14:39:38;6.97;;;4.97;;
13897;SDS011;7019;50.766;4.474;2023-05-07T14:42:05;5.70;;;5.17;;
13897;SDS011;7019;50.766;4.474;2023-05-07T14:44:33;6.03;;;5.10;;
13897;SDS011;7019;50.766;4.474;2023-05-07T14:47:00;5.77;;;5.03;;
13897;SDS011;7019;50.766;4.474;2023-05-07T14:49:28;5.37;;;4.83;;
13897;SDS011;7019;50.766;4.474;2023-05-07T14:51:57;5.90;;;4.77;;
13897;SDS011;7019;50.766;4.474;2023-05-07T14:54:25;6.73;;;5.83;;
13897;SDS011;7019;50.766;4.474;2023-05-07T14:56:53;6.43;;;5.03;;
13897;SDS011;7019;50.766;4.474;2023-05-07T14:59:21;5.77;;;5.10;;
13897;SDS011;7019;50.766;4.474;2023-05-07T15:01:50;6.97;;;4.87;;
13897;SDS011;7019;50.766;4.474;2023-05-07T15:04:17;5.30;;;4.80;;
13897;SDS011;7019;50.766;4.474;2023-05-07T15:06:44;6.20;;;4.90;;
13897;SDS011;7019;50.766;4.474;2023-05-07T15:09:12;6.73;;;6.03;;
13897;SDS011;7019;50.766;4.474;2023-05-07T15:11:39;6.63;;;4.93;;
13897;SDS011;7019;50.766;4.474;2023-05-07T15:14:07;5.47;;;4.97;;
13897;SDS011;7019;50.766;4.474;2023-05-07T15:16:35;5.53;;;4.63;;
13897;SDS011;7019;50.766;4.474;2023-05-07T15:19:02;5.50;;;5.00;;
13897;SDS011;7019;50.766;4.474;2023-05-07T15:21:29;5.80;;;5.20;;